Anton, Texas
Current Conditions -  °F | °C
As of 3:53 PM on Thursday 27 Nov 2014 (Local Time) from KLBB Reporting Station
Few Clouds Few Clouds  
Wind Chill: 15°   Ceiling: Unl
Heat Index: 15°   Visibility: 10mi
Dew Point: -1°   Wind: 16mph
Humidity: 33%   Direction: 190°S
Pressure: 30.3"   Gusts: NA
Location:  33.81°N, 102.16°W
Report Text: KLBB 272153Z 19014KT 10SM FEW250 15/M01 A3030 RMK AO2 SLP252 T01501011
Loading
Personal Weather Stations






























Interactive Weather Map New forecast layout! Learn more

10-Day Weather Forecast

Advertisements
Track Severe Weather on mobile